createdAt,value
2018-11-04T00:00:25.537Z,17.77
2018-11-04T00:02:54.117Z,18.27
2018-11-04T00:05:22.686Z,18.77
2018-11-04T00:07:52.026Z,18.17
2018-11-04T00:10:20.707Z,17.50
2018-11-04T00:12:49.266Z,17.50
2018-11-04T00:15:17.957Z,17.37
2018-11-04T00:17:46.524Z,16.87
2018-11-04T00:20:15.765Z,17.60
2018-11-04T00:22:44.415Z,17.60
2018-11-04T00:25:14.140Z,18.17
2018-11-04T00:27:42.691Z,17.30
2018-11-04T00:30:14.185Z,17.50
2018-11-04T00:32:43.437Z,17.57
2018-11-04T00:35:12.263Z,16.77
2018-11-04T00:37:41.196Z,17.73
2018-11-04T00:40:10.071Z,17.73
2018-11-04T00:42:38.828Z,17.90
2018-11-04T00:45:08.896Z,17.43
2018-11-04T00:47:38.076Z,18.30
2018-11-04T00:50:09.404Z,17.43
2018-11-04T00:52:37.931Z,19.57
2018-11-04T00:55:07.652Z,18.30
2018-11-04T00:57:36.589Z,17.70
2018-11-04T01:00:07.834Z,18.40
2018-11-04T01:02:36.409Z,19.30
2018-11-04T01:05:06.335Z,19.93
2018-11-04T01:07:34.922Z,19.47
2018-11-04T01:10:03.606Z,19.50
2018-11-04T01:12:32.206Z,19.13
2018-11-04T01:15:07.584Z,19.53
2018-11-04T01:17:36.288Z,20.80
2018-11-04T01:20:05.531Z,21.37
2018-11-04T01:22:34.085Z,20.80
2018-11-04T01:25:02.673Z,20.83
2018-11-04T01:27:31.193Z,19.90
2018-11-04T01:29:59.815Z,20.63
2018-11-04T01:32:28.370Z,18.47
2018-11-04T01:34:56.950Z,19.43
2018-11-04T01:37:25.493Z,19.13
2018-11-04T01:39:54.072Z,18.67
2018-11-04T01:42:22.612Z,18.93
2018-11-04T01:44:51.216Z,18.77
2018-11-04T01:47:19.784Z,19.33
2018-11-04T01:49:48.571Z,19.57
2018-11-04T01:52:17.221Z,19.10
2018-11-04T01:54:45.768Z,19.57
2018-11-04T01:57:14.359Z,19.20
2018-11-04T01:59:42.974Z,18.10
2018-11-04T02:02:11.566Z,17.47
2018-11-04T02:04:40.132Z,18.47
2018-11-04T02:07:08.669Z,17.30
2018-11-04T02:09:37.221Z,16.93
2018-11-04T02:12:06.318Z,18.10
2018-11-04T02:14:34.877Z,16.90
2018-11-04T02:17:03.438Z,18.33
2018-11-04T02:19:32.035Z,19.20
2018-11-04T02:22:00.652Z,19.03
2018-11-04T02:24:29.178Z,18.80
2018-11-04T02:26:58.767Z,19.10
2018-11-04T02:29:27.309Z,18.80
2018-11-04T02:31:55.925Z,19.53
2018-11-04T02:34:24.460Z,19.53
2018-11-04T02:36:53.019Z,20.23
2018-11-04T02:39:21.542Z,20.93
2018-11-04T02:41:50.106Z,20.70
2018-11-04T02:44:18.685Z,19.53
2018-11-04T02:46:47.273Z,21.07
2018-11-04T02:49:15.803Z,19.93
2018-11-04T02:51:44.374Z,20.07
2018-11-04T02:54:12.944Z,20.90
2018-11-04T02:56:41.530Z,21.03
2018-11-04T02:59:10.113Z,20.57
2018-11-04T03:01:38.759Z,19.77
2018-11-04T03:04:07.263Z,20.30
2018-11-04T03:06:35.956Z,21.17
2018-11-04T03:09:05.715Z,21.73
2018-11-04T03:11:34.336Z,22.20
2018-11-04T03:14:02.896Z,22.30
2018-11-04T03:16:31.464Z,23.33
2018-11-04T03:18:59.987Z,22.50
2018-11-04T03:21:28.578Z,22.73
2018-11-04T03:23:57.113Z,22.50
2018-11-04T03:26:25.671Z,23.03
2018-11-04T03:28:54.233Z,21.40
2018-11-04T03:31:22.815Z,21.87
2018-11-04T03:33:51.345Z,22.37
2018-11-04T03:36:19.883Z,22.20
2018-11-04T03:38:48.482Z,22.40
2018-11-04T03:41:17.065Z,22.23
2018-11-04T03:43:45.655Z,21.57
2018-11-04T03:46:14.211Z,21.17
2018-11-04T03:48:43.286Z,22.13
2018-11-04T03:51:11.945Z,21.43
2018-11-04T03:53:40.485Z,21.40
2018-11-04T03:56:09.005Z,21.63
2018-11-04T03:58:37.550Z,20.73
2018-11-04T04:01:06.207Z,20.80
2018-11-04T04:03:34.716Z,19.70
2018-11-04T04:06:03.278Z,19.20
2018-11-04T04:08:31.785Z,18.43
2018-11-04T04:11:00.324Z,18.50
2018-11-04T04:13:28.852Z,18.77
2018-11-04T04:15:57.403Z,18.43
2018-11-04T04:18:26.023Z,19.77
2018-11-04T04:20:59.012Z,19.90
2018-11-04T04:23:27.621Z,19.83
2018-11-04T04:25:56.203Z,18.90
2018-11-04T04:28:24.728Z,20.87
2018-11-04T04:30:53.252Z,19.50
2018-11-04T04:33:21.847Z,21.33
2018-11-04T04:35:50.385Z,20.50
2018-11-04T04:38:18.959Z,20.57
2018-11-04T04:40:47.579Z,21.10
2018-11-04T04:43:16.095Z,19.93
2018-11-04T04:45:44.603Z,20.50
2018-11-04T04:48:13.172Z,21.80
2018-11-04T04:50:41.705Z,21.20
2018-11-04T04:53:10.288Z,21.70
2018-11-04T04:55:38.808Z,23.10
2018-11-04T04:58:07.335Z,23.23
2018-11-04T05:00:35.912Z,22.30
2018-11-04T05:03:04.458Z,23.07
2018-11-04T05:05:33.001Z,21.97
2018-11-04T05:08:01.571Z,21.60
2018-11-04T05:10:30.125Z,21.97
2018-11-04T05:12:58.674Z,22.40
2018-11-04T05:15:27.226Z,21.33
2018-11-04T05:17:55.730Z,22.80
2018-11-04T05:20:24.555Z,23.73
2018-11-04T05:22:53.046Z,23.20
2018-11-04T05:25:21.560Z,24.20
2018-11-04T05:27:50.127Z,22.97
2018-11-04T05:30:18.669Z,22.53
2018-11-04T05:32:47.207Z,23.93
2018-11-04T05:35:15.735Z,23.77
2018-11-04T05:37:44.277Z,24.67
2018-11-04T05:40:12.799Z,24.33
2018-11-04T05:42:41.418Z,23.20
2018-11-04T05:45:10.107Z,25.93
2018-11-04T05:47:38.673Z,26.40
2018-11-04T05:50:07.608Z,25.50
2018-11-04T05:52:36.533Z,26.57
2018-11-04T05:55:06.219Z,26.67
2018-11-04T05:57:34.837Z,28.50
2018-11-04T06:00:03.431Z,27.10
2018-11-04T06:02:32.006Z,26.17
2018-11-04T06:05:00.767Z,29.63
2018-11-04T06:07:29.352Z,28.43
2018-11-04T06:09:57.888Z,28.33
2018-11-04T06:12:26.424Z,27.83
2018-11-04T06:14:55.022Z,27.30
2018-11-04T06:17:23.576Z,29.43
2018-11-04T06:19:52.266Z,29.73
2018-11-04T06:22:21.491Z,33.10
2018-11-04T06:24:50.370Z,30.33
2018-11-04T06:27:18.982Z,28.60
2018-11-04T06:29:47.519Z,29.50
2018-11-04T06:32:16.090Z,31.10
2018-11-04T06:34:44.746Z,25.43
2018-11-04T06:37:13.327Z,27.63
2018-11-04T06:39:41.878Z,28.90
2018-11-04T06:42:10.416Z,25.93
2018-11-04T06:44:39.124Z,31.20
2018-11-04T06:47:07.762Z,28.53
2018-11-04T06:49:36.845Z,29.40
2018-11-04T06:52:06.061Z,28.87
2018-11-04T06:54:34.602Z,28.77
2018-11-04T06:57:03.110Z,27.07
2018-11-04T06:59:31.685Z,27.93
2018-11-04T07:02:00.314Z,27.60
2018-11-04T07:04:29.782Z,28.40
2018-11-04T07:06:58.559Z,26.83
2018-11-04T07:09:27.144Z,25.93
2018-11-04T07:11:55.741Z,32.97
2018-11-04T07:14:24.922Z,33.27
2018-11-04T07:16:53.448Z,30.30
2018-11-04T07:19:22.053Z,34.97
2018-11-04T07:21:50.622Z,34.83
2018-11-04T07:24:19.509Z,33.10
2018-11-04T07:26:48.299Z,30.17
2018-11-04T07:29:16.994Z,31.07
2018-11-04T07:31:45.571Z,31.27
2018-11-04T07:34:14.252Z,31.17
2018-11-04T07:36:42.850Z,27.53
2018-11-04T07:39:12.861Z,35.47
2018-11-04T07:41:41.636Z,29.87
2018-11-04T07:44:10.903Z,31.23
2018-11-04T07:46:39.433Z,31.13
2018-11-04T07:49:08.070Z,30.70
2018-11-04T07:51:36.635Z,33.87
2018-11-04T07:54:06.193Z,30.77
2018-11-04T07:56:34.729Z,29.87
2018-11-04T07:59:03.292Z,31.67
2018-11-04T08:01:31.840Z,31.60
2018-11-04T08:04:00.409Z,35.47
2018-11-04T08:06:28.986Z,38.50
2018-11-04T08:08:57.595Z,35.63
2018-11-04T08:11:26.139Z,35.57
2018-11-04T08:13:54.986Z,37.00
2018-11-04T08:16:23.559Z,36.50
2018-11-04T08:18:52.159Z,35.00
2018-11-04T08:21:20.828Z,33.53
2018-11-04T08:23:49.273Z,31.80
2018-11-04T08:26:17.855Z,30.53
2018-11-04T08:28:46.458Z,29.97
2018-11-04T08:31:15.012Z,30.80
2018-11-04T08:33:43.581Z,31.63
2018-11-04T08:36:12.538Z,29.93
2018-11-04T08:38:41.130Z,30.20
2018-11-04T08:41:09.989Z,29.27
2018-11-04T08:43:38.592Z,30.17
2018-11-04T08:46:07.458Z,27.43
2018-11-04T08:48:36.032Z,31.03
2018-11-04T08:51:04.636Z,29.30
2018-11-04T08:53:33.206Z,28.67
2018-11-04T08:56:01.726Z,27.87
2018-11-04T08:58:30.274Z,27.37
2018-11-04T09:00:58.811Z,27.23
2018-11-04T09:03:27.353Z,27.00
2018-11-04T09:05:55.916Z,27.30
2018-11-04T09:08:24.532Z,27.27
2018-11-04T09:10:53.073Z,26.33
2018-11-04T09:13:21.600Z,26.77
2018-11-04T09:15:50.174Z,27.50
2018-11-04T09:18:18.720Z,26.33
2018-11-04T09:20:47.235Z,25.77
2018-11-04T09:23:15.734Z,24.57
2018-11-04T09:25:44.344Z,24.20
2018-11-04T09:28:12.884Z,23.90
2018-11-04T09:30:41.433Z,23.97
2018-11-04T09:33:10.028Z,24.50
2018-11-04T09:35:38.778Z,24.77
2018-11-04T09:38:07.104Z,24.37
2018-11-04T09:40:35.660Z,22.63
2018-11-04T09:43:04.181Z,23.23
2018-11-04T09:45:33.204Z,22.83
2018-11-04T09:48:01.772Z,22.03
2018-11-04T09:50:30.295Z,22.43
2018-11-04T09:52:58.821Z,21.97
2018-11-04T09:55:27.517Z,22.37
2018-11-04T09:57:56.104Z,22.83
2018-11-04T10:00:24.641Z,22.70
2018-11-04T10:02:53.174Z,22.63
2018-11-04T10:05:21.724Z,22.40
2018-11-04T10:07:50.305Z,21.70
2018-11-04T10:10:18.850Z,21.90
2018-11-04T10:12:47.353Z,19.37
2018-11-04T10:15:15.882Z,20.70
2018-11-04T10:17:44.486Z,21.30
2018-11-04T10:20:13.816Z,21.07
2018-11-04T10:22:42.524Z,20.70
2018-11-04T10:25:12.368Z,20.03
2018-11-04T10:27:41.738Z,19.90
2018-11-04T10:30:13.129Z,20.57
2018-11-04T10:32:41.771Z,20.87
2018-11-04T10:35:10.958Z,20.80
2018-11-04T10:37:40.494Z,19.43
2018-11-04T10:40:10.279Z,20.93
2018-11-04T10:42:38.879Z,19.77
2018-11-04T10:45:08.888Z,19.97
2018-11-04T10:47:37.765Z,18.53
2018-11-04T10:50:08.347Z,17.53
2018-11-04T10:52:36.895Z,19.93
2018-11-04T10:55:06.051Z,20.00
2018-11-04T10:57:34.576Z,18.33
2018-11-04T11:00:03.172Z,18.93
2018-11-04T11:02:31.722Z,19.67
2018-11-04T11:05:00.284Z,19.47
2018-11-04T11:07:28.847Z,20.07
2018-11-04T11:09:57.364Z,18.43
2018-11-04T11:12:25.953Z,20.17
2018-11-04T11:14:54.510Z,19.57
2018-11-04T11:17:23.068Z,19.03
2018-11-04T11:19:51.579Z,19.97
2018-11-04T11:22:20.224Z,18.33
2018-11-04T11:24:48.738Z,20.60
2018-11-04T11:27:17.360Z,20.27
2018-11-04T11:29:45.949Z,19.40
2018-11-04T11:32:14.542Z,19.87
2018-11-04T11:34:43.175Z,18.70
2018-11-04T11:37:11.845Z,18.57
2018-11-04T11:39:40.383Z,20.00
2018-11-04T11:42:08.954Z,19.73
2018-11-04T11:44:37.529Z,19.07
2018-11-04T11:47:06.268Z,18.00
2018-11-04T11:49:34.825Z,17.02
2018-11-04T11:52:03.426Z,19.42
2018-11-04T11:54:31.935Z,18.65
2018-11-04T11:57:00.530Z,17.52
2018-11-04T11:59:29.110Z,18.40
2018-11-04T12:01:57.691Z,17.75
2018-11-04T12:04:26.233Z,16.57
2018-11-04T12:06:54.764Z,16.70
2018-11-04T12:09:23.269Z,17.40
2018-11-04T12:11:52.111Z,16.50
2018-11-04T12:14:20.641Z,15.83
2018-11-04T12:16:49.183Z,17.42
2018-11-04T12:19:17.773Z,18.00
2018-11-04T12:21:46.318Z,17.35
2018-11-04T12:24:15.118Z,17.27
2018-11-04T12:26:43.682Z,17.15
2018-11-04T12:29:12.282Z,17.98
2018-11-04T12:31:40.887Z,17.70
2018-11-04T12:34:09.409Z,18.52
2018-11-04T12:36:38.011Z,17.57
2018-11-04T12:39:08.526Z,17.27
2018-11-04T12:41:40.219Z,17.33
2018-11-04T12:44:08.746Z,18.83
2018-11-04T12:46:37.306Z,17.87
2018-11-04T12:49:05.923Z,18.77
2018-11-04T12:51:34.478Z,18.43
2018-11-04T12:54:03.043Z,18.77
2018-11-04T12:56:31.532Z,17.30
2018-11-04T12:59:00.093Z,19.23
2018-11-04T13:01:28.688Z,17.97
2018-11-04T13:03:57.283Z,18.70
2018-11-04T13:06:25.991Z,19.47
2018-11-04T13:08:54.532Z,20.17
2018-11-04T13:11:23.326Z,19.33
2018-11-04T13:13:51.860Z,19.63
2018-11-04T13:16:20.373Z,19.00
2018-11-04T13:18:48.953Z,18.10
2018-11-04T13:21:17.649Z,19.37
2018-11-04T13:23:46.158Z,19.20
2018-11-04T13:26:14.703Z,20.83
2018-11-04T13:28:43.248Z,20.93
2018-11-04T13:31:11.779Z,21.30
2018-11-04T13:33:40.336Z,21.10
2018-11-04T13:36:09.165Z,19.87
2018-11-04T13:38:37.777Z,21.73
2018-11-04T13:41:06.466Z,19.60
2018-11-04T13:43:34.995Z,20.87
2018-11-04T13:46:03.516Z,21.27
2018-11-04T13:48:32.078Z,20.40
2018-11-04T13:51:00.953Z,20.40
2018-11-04T13:53:29.534Z,21.50
2018-11-04T13:55:58.050Z,21.57
2018-11-04T13:58:26.827Z,20.23
2018-11-04T14:00:55.375Z,20.40
2018-11-04T14:03:23.936Z,20.60
2018-11-04T14:05:52.449Z,20.57
2018-11-04T14:08:21.043Z,22.33
2018-11-04T14:10:49.604Z,21.50
2018-11-04T14:13:18.268Z,23.67
2018-11-04T14:15:46.773Z,23.33
2018-11-04T14:18:15.323Z,22.00
2018-11-04T14:20:43.846Z,20.80
2018-11-04T14:23:12.468Z,20.57
2018-11-04T14:25:41.008Z,20.40
2018-11-04T14:28:09.669Z,21.55
2018-11-04T14:30:38.238Z,20.57
2018-11-04T14:33:07.207Z,21.17
2018-11-04T14:35:35.751Z,20.53
2018-11-04T14:38:05.074Z,20.87
2018-11-04T14:40:33.629Z,20.70
2018-11-04T14:43:02.255Z,20.70
2018-11-04T14:45:30.857Z,20.53
2018-11-04T14:47:59.558Z,20.60
2018-11-04T14:50:28.138Z,20.63
2018-11-04T14:52:56.819Z,21.17
2018-11-04T14:55:25.333Z,20.30
2018-11-04T14:57:53.882Z,21.57
2018-11-04T15:00:22.521Z,20.63
2018-11-04T15:02:51.138Z,20.20
2018-11-04T15:05:19.713Z,21.63
2018-11-04T15:07:48.280Z,20.37
2018-11-04T15:10:16.963Z,21.87
2018-11-04T15:12:45.779Z,21.87
2018-11-04T15:15:16.064Z,22.80
2018-11-04T15:17:44.628Z,23.23
2018-11-04T15:20:13.279Z,23.33
2018-11-04T15:22:45.845Z,21.87
2018-11-04T15:25:15.336Z,22.53
2018-11-04T15:27:44.180Z,22.00
2018-11-04T15:30:13.191Z,21.47
2018-11-04T15:32:42.429Z,22.80
2018-11-04T15:35:11.470Z,23.40
2018-11-04T15:37:40.002Z,23.47
2018-11-04T15:40:10.532Z,23.03
2018-11-04T15:42:39.170Z,24.03
2018-11-04T15:45:09.539Z,23.87
2018-11-04T15:47:38.509Z,23.50
2018-11-04T15:50:08.964Z,22.33
2018-11-04T15:52:37.514Z,23.30
2018-11-04T15:55:06.295Z,25.27
2018-11-04T15:57:34.989Z,23.27
2018-11-04T16:00:03.587Z,23.53
2018-11-04T16:02:32.147Z,24.33
2018-11-04T16:05:00.923Z,24.33
2018-11-04T16:07:29.508Z,24.67
2018-11-04T16:09:58.178Z,26.37
2018-11-04T16:12:27.050Z,26.07
2018-11-04T16:14:56.201Z,25.77
2018-11-04T16:17:24.766Z,23.77
2018-11-04T16:19:53.374Z,25.87
2018-11-04T16:22:21.942Z,26.23
2018-11-04T16:24:50.705Z,50.03
2018-11-04T16:27:19.771Z,27.30
2018-11-04T16:29:48.405Z,26.07
2018-11-04T16:32:16.968Z,24.23
2018-11-04T16:34:45.529Z,25.73
2018-11-04T16:37:14.079Z,28.70
2018-11-04T16:39:43.314Z,30.57
2018-11-04T16:42:11.968Z,28.00
2018-11-04T16:44:40.660Z,26.07
2018-11-04T16:47:09.211Z,25.77
2018-11-04T16:49:37.921Z,24.37
2018-11-04T16:52:06.584Z,27.43
2018-11-04T16:54:35.166Z,26.27
2018-11-04T16:57:04.725Z,28.97
2018-11-04T16:59:33.833Z,27.80
2018-11-04T17:02:02.398Z,30.53
2018-11-04T17:04:31.865Z,29.43
2018-11-04T17:07:00.239Z,27.97
2018-11-04T17:09:28.839Z,27.20
2018-11-04T17:11:57.390Z,28.70
2018-11-04T17:14:26.252Z,27.60
2018-11-04T17:16:54.826Z,27.00
2018-11-04T17:19:23.448Z,26.27
2018-11-04T17:21:51.982Z,27.47
2018-11-04T17:24:20.555Z,28.80
2018-11-04T17:26:49.163Z,29.43
2018-11-04T17:29:18.349Z,29.63
2018-11-04T17:31:47.032Z,31.73
2018-11-04T17:34:15.613Z,30.17
2018-11-04T17:36:44.391Z,28.97
2018-11-04T17:39:13.440Z,28.40
2018-11-04T17:41:41.981Z,26.87
2018-11-04T17:44:11.002Z,29.60
2018-11-04T17:46:39.525Z,27.43
2018-11-04T17:49:08.829Z,27.77
2018-11-04T17:51:37.844Z,29.10
2018-11-04T17:54:06.873Z,27.53
2018-11-04T17:56:35.400Z,26.73
2018-11-04T17:59:04.273Z,27.30
2018-11-04T18:01:32.930Z,26.43
2018-11-04T18:04:01.626Z,26.23
2018-11-04T18:06:30.297Z,25.37
2018-11-04T18:08:59.064Z,25.93
2018-11-04T18:11:27.654Z,27.57
2018-11-04T18:13:56.274Z,32.77
2018-11-04T18:16:24.959Z,32.00
2018-11-04T18:18:53.484Z,42.80
2018-11-04T18:21:22.121Z,40.37
2018-11-04T18:23:50.667Z,26.70
2018-11-04T18:26:19.341Z,35.33
2018-11-04T18:28:48.096Z,35.03
2018-11-04T18:31:16.785Z,27.00
2018-11-04T18:33:45.457Z,30.23
2018-11-04T18:36:14.083Z,40.33
2018-11-04T18:38:42.652Z,38.83
2018-11-04T18:41:11.347Z,37.43
2018-11-04T18:43:40.752Z,30.70
2018-11-04T18:46:09.493Z,29.27
2018-11-04T18:48:38.123Z,28.43
2018-11-04T18:51:07.083Z,29.03
2018-11-04T18:53:35.697Z,29.23
2018-11-04T18:56:04.588Z,29.07
2018-11-04T18:58:33.223Z,43.33
2018-11-04T19:01:01.792Z,39.20
2018-11-04T19:03:31.222Z,33.27
2018-11-04T19:05:59.854Z,37.30
2018-11-04T19:08:29.160Z,34.10
2018-11-04T19:10:57.780Z,38.83
2018-11-04T19:13:26.927Z,35.10
2018-11-04T19:15:55.560Z,32.63
2018-11-04T19:18:24.125Z,30.47
2018-11-04T19:20:52.675Z,33.17
2018-11-04T19:23:21.368Z,35.63
2018-11-04T19:25:49.955Z,34.33
2018-11-04T19:28:18.571Z,33.20
2018-11-04T19:30:47.242Z,33.33
2018-11-04T19:33:15.883Z,31.93
2018-11-04T19:35:44.691Z,33.20
2018-11-04T19:38:13.229Z,33.23
2018-11-04T19:40:41.850Z,33.83
2018-11-04T19:43:10.595Z,35.00
2018-11-04T19:45:39.273Z,35.10
2018-11-04T19:48:07.933Z,33.37
2018-11-04T19:50:36.526Z,35.23
2018-11-04T19:53:05.227Z,39.98
2018-11-04T19:55:33.772Z,34.83
2018-11-04T19:58:02.391Z,32.13
2018-11-04T20:00:31.110Z,43.00
2018-11-04T20:02:59.672Z,44.23
2018-11-04T20:05:28.378Z,35.77
2018-11-04T20:07:57.163Z,33.33
2018-11-04T20:10:25.740Z,36.47
2018-11-04T20:12:59.580Z,36.47
2018-11-04T20:15:28.157Z,36.57
2018-11-04T20:17:56.786Z,41.13
2018-11-04T20:20:27.291Z,35.13
2018-11-04T20:22:55.869Z,34.47
2018-11-04T20:25:29.696Z,32.83
2018-11-04T20:27:58.291Z,33.57
2018-11-04T20:30:26.844Z,33.07
2018-11-04T20:33:00.704Z,33.00
2018-11-04T20:35:29.236Z,34.90
2018-11-04T20:37:57.839Z,36.37
2018-11-04T20:40:31.704Z,33.50
2018-11-04T20:43:00.523Z,33.37
2018-11-04T20:45:29.158Z,33.67
2018-11-04T20:48:03.109Z,36.23
2018-11-04T20:50:36.983Z,37.53
2018-11-04T20:53:05.891Z,40.30
2018-11-04T20:55:39.708Z,41.60
2018-11-04T20:58:08.476Z,41.80
2018-11-04T21:00:37.019Z,40.50
2018-11-04T21:03:05.812Z,52.03
2018-11-04T21:05:34.401Z,44.23
2018-11-04T21:08:03.023Z,51.17
2018-11-04T21:10:31.575Z,46.90
2018-11-04T21:13:00.496Z,49.23
2018-11-04T21:15:29.047Z,47.77
2018-11-04T21:17:58.622Z,57.47
2018-11-04T21:20:27.178Z,47.40
2018-11-04T21:22:55.753Z,47.43
2018-11-04T21:25:24.462Z,49.53
2018-11-04T21:27:52.947Z,46.97
2018-11-04T21:30:21.581Z,46.93
2018-11-04T21:32:50.168Z,43.87
2018-11-04T21:35:18.779Z,35.40
2018-11-04T21:37:47.448Z,32.93
2018-11-04T21:40:16.035Z,32.17
2018-11-04T21:42:44.789Z,30.97
2018-11-04T21:45:14.124Z,31.17
2018-11-04T21:47:43.432Z,32.10
2018-11-04T21:50:12.566Z,33.03
2018-11-04T21:52:41.134Z,33.10
2018-11-04T21:55:11.555Z,35.23
2018-11-04T21:57:40.918Z,37.73
2018-11-04T22:00:11.415Z,37.00
2018-11-04T22:02:40.159Z,34.40
2018-11-04T22:05:10.008Z,32.20
2018-11-04T22:07:38.954Z,33.27
2018-11-04T22:10:10.381Z,38.30
2018-11-04T22:12:39.386Z,38.30
2018-11-04T22:15:09.288Z,36.27
2018-11-04T22:17:38.716Z,35.60
2018-11-04T22:20:08.541Z,37.60
2018-11-04T22:22:37.240Z,37.83
2018-11-04T22:25:06.952Z,35.10
2018-11-04T22:27:35.540Z,39.63
2018-11-04T22:30:04.661Z,38.87
2018-11-04T22:32:33.274Z,41.33
2018-11-04T22:35:01.879Z,40.57
2018-11-04T22:37:30.443Z,48.87
2018-11-04T22:39:59.023Z,51.87
2018-11-04T22:42:27.583Z,45.53
2018-11-04T22:44:56.154Z,44.90
2018-11-04T22:47:24.731Z,40.27
2018-11-04T22:49:53.445Z,39.40
2018-11-04T22:52:22.032Z,42.37
2018-11-04T22:54:50.621Z,46.33
2018-11-04T22:57:19.275Z,43.83
2018-11-04T22:59:47.951Z,42.27
2018-11-04T23:02:16.566Z,42.50
2018-11-04T23:04:50.630Z,46.37
2018-11-04T23:07:19.222Z,46.43
2018-11-04T23:09:47.873Z,41.23
2018-11-04T23:12:17.204Z,40.53
2018-11-04T23:14:45.783Z,43.17
2018-11-04T23:17:15.006Z,43.15
2018-11-04T23:19:43.601Z,42.33
2018-11-04T23:22:12.309Z,41.97
2018-11-04T23:24:40.883Z,44.37
2018-11-04T23:27:10.096Z,41.33
2018-11-04T23:29:38.730Z,47.47
2018-11-04T23:32:07.280Z,55.13
2018-11-04T23:34:35.884Z,49.17
2018-11-04T23:37:04.491Z,53.57
2018-11-04T23:39:33.064Z,46.60
2018-11-04T23:42:01.672Z,46.40
2018-11-04T23:44:30.361Z,44.43
2018-11-04T23:46:59.000Z,41.00
2018-11-04T23:49:27.635Z,44.87
2018-11-04T23:51:56.221Z,42.10
2018-11-04T23:54:24.816Z,43.70
2018-11-04T23:56:53.383Z,42.37
2018-11-04T23:59:21.974Z,40.83
